sensor_id;sensor_type;location;lat;lon;timestamp;P1;durP1;ratioP1;P2;durP2;ratioP2
37451;SDS011;23314;51.114;6.900;2022-10-28T00:01:36;8.00;;;5.40;;
37451;SDS011;23314;51.114;6.900;2022-10-28T00:04:02;12.53;;;5.00;;
37451;SDS011;23314;51.114;6.900;2022-10-28T00:06:28;8.32;;;4.70;;
37451;SDS011;23314;51.114;6.900;2022-10-28T00:08:58;10.97;;;5.00;;
37451;SDS011;23314;51.114;6.900;2022-10-28T00:11:26;11.10;;;5.23;;
37451;SDS011;23314;51.114;6.900;2022-10-28T00:13:54;10.18;;;5.05;;
37451;SDS011;23314;51.114;6.900;2022-10-28T00:16:21;11.00;;;4.90;;
37451;SDS011;23314;51.114;6.900;2022-10-28T00:18:51;11.23;;;4.47;;
37451;SDS011;23314;51.114;6.900;2022-10-28T00:21:20;10.55;;;5.35;;
37451;SDS011;23314;51.114;6.900;2022-10-28T00:23:47;14.40;;;5.45;;
37451;SDS011;23314;51.114;6.900;2022-10-28T00:26:14;13.90;;;4.85;;
37451;SDS011;23314;51.114;6.900;2022-10-28T00:28:48;7.37;;;4.73;;
37451;SDS011;23314;51.114;6.900;2022-10-28T00:31:16;10.18;;;4.65;;
37451;SDS011;23314;51.114;6.900;2022-10-28T00:33:43;14.37;;;5.27;;
37451;SDS011;23314;51.114;6.900;2022-10-28T00:36:10;12.03;;;5.40;;
37451;SDS011;23314;51.114;6.900;2022-10-28T00:38:40;11.07;;;4.67;;
37451;SDS011;23314;51.114;6.900;2022-10-28T00:41:07;10.30;;;4.63;;
37451;SDS011;23314;51.114;6.900;2022-10-28T00:46:14;10.47;;;4.63;;
37451;SDS011;23314;51.114;6.900;2022-10-28T00:48:44;11.57;;;4.73;;
37451;SDS011;23314;51.114;6.900;2022-10-28T00:51:11;10.63;;;4.50;;
37451;SDS011;23314;51.114;6.900;2022-10-28T00:53:39;10.75;;;4.70;;
37451;SDS011;23314;51.114;6.900;2022-10-28T00:56:07;11.13;;;4.53;;
37451;SDS011;23314;51.114;6.900;2022-10-28T00:58:33;13.57;;;5.03;;
37451;SDS011;23314;51.114;6.900;2022-10-28T01:00:59;12.25;;;4.65;;
37451;SDS011;23314;51.114;6.900;2022-10-28T01:03:24;12.30;;;4.80;;
37451;SDS011;23314;51.114;6.900;2022-10-28T01:05:50;15.07;;;4.93;;
37451;SDS011;23314;51.114;6.900;2022-10-28T01:08:17;11.00;;;4.47;;
37451;SDS011;23314;51.114;6.900;2022-10-28T01:22:22;17.33;;;4.88;;
37451;SDS011;23314;51.114;6.900;2022-10-28T01:31:01;6.45;;;3.97;;
37451;SDS011;23314;51.114;6.900;2022-10-28T01:33:35;10.25;;;4.45;;
37451;SDS011;23314;51.114;6.900;2022-10-28T01:39:34;10.65;;;4.00;;
37451;SDS011;23314;51.114;6.900;2022-10-28T01:48:05;11.18;;;4.43;;
37451;SDS011;23314;51.114;6.900;2022-10-28T01:50:29;8.40;;;3.90;;
37451;SDS011;23314;51.114;6.900;2022-10-28T01:52:58;9.82;;;4.63;;
37451;SDS011;23314;51.114;6.900;2022-10-28T01:55:32;12.18;;;4.25;;
37451;SDS011;23314;51.114;6.900;2022-10-28T01:58:01;12.43;;;4.40;;
37451;SDS011;23314;51.114;6.900;2022-10-28T02:00:29;9.32;;;4.18;;
37451;SDS011;23314;51.114;6.900;2022-10-28T02:02:56;9.27;;;4.30;;
37451;SDS011;23314;51.114;6.900;2022-10-28T02:13:45;15.00;;;4.85;;
37451;SDS011;23314;51.114;6.900;2022-10-28T02:19:25;11.27;;;4.40;;
37451;SDS011;23314;51.114;6.900;2022-10-28T02:22:26;10.50;;;4.63;;
37451;SDS011;23314;51.114;6.900;2022-10-28T02:25:02;6.70;;;4.35;;
37451;SDS011;23314;51.114;6.900;2022-10-28T02:30:37;10.17;;;4.33;;
37451;SDS011;23314;51.114;6.900;2022-10-28T02:33:05;11.73;;;5.10;;
37451;SDS011;23314;51.114;6.900;2022-10-28T02:35:38;10.45;;;4.78;;
37451;SDS011;23314;51.114;6.900;2022-10-28T02:38:14;14.67;;;5.00;;
37451;SDS011;23314;51.114;6.900;2022-10-28T02:40:45;11.53;;;4.67;;
37451;SDS011;23314;51.114;6.900;2022-10-28T02:43:15;18.87;;;4.73;;
37451;SDS011;23314;51.114;6.900;2022-10-28T02:45:43;13.87;;;5.30;;
37451;SDS011;23314;51.114;6.900;2022-10-28T02:48:18;14.30;;;5.13;;
37451;SDS011;23314;51.114;6.900;2022-10-28T02:51:06;17.67;;;5.17;;
37451;SDS011;23314;51.114;6.900;2022-10-28T02:56:48;12.70;;;5.37;;
37451;SDS011;23314;51.114;6.900;2022-10-28T02:59:17;9.37;;;5.20;;
37451;SDS011;23314;51.114;6.900;2022-10-28T03:01:43;11.33;;;5.17;;
37451;SDS011;23314;51.114;6.900;2022-10-28T03:04:08;17.90;;;5.87;;
37451;SDS011;23314;51.114;6.900;2022-10-28T03:06:34;11.60;;;5.37;;
37451;SDS011;23314;51.114;6.900;2022-10-28T03:08:59;11.83;;;5.17;;
37451;SDS011;23314;51.114;6.900;2022-10-28T03:11:24;12.27;;;5.10;;
37451;SDS011;23314;51.114;6.900;2022-10-28T03:13:50;11.40;;;4.77;;
37451;SDS011;23314;51.114;6.900;2022-10-28T03:16:15;10.50;;;4.50;;
37451;SDS011;23314;51.114;6.900;2022-10-28T03:18:41;16.67;;;5.33;;
37451;SDS011;23314;51.114;6.900;2022-10-28T03:21:06;11.20;;;5.00;;
37451;SDS011;23314;51.114;6.900;2022-10-28T03:23:32;12.67;;;4.57;;
37451;SDS011;23314;51.114;6.900;2022-10-28T03:25:57;12.70;;;4.70;;
37451;SDS011;23314;51.114;6.900;2022-10-28T03:28:22;10.33;;;4.80;;
37451;SDS011;23314;51.114;6.900;2022-10-28T03:30:48;14.60;;;4.63;;
37451;SDS011;23314;51.114;6.900;2022-10-28T03:33:13;11.20;;;4.10;;
37451;SDS011;23314;51.114;6.900;2022-10-28T03:35:39;9.87;;;4.93;;
37451;SDS011;23314;51.114;6.900;2022-10-28T03:38:05;12.97;;;4.57;;
37451;SDS011;23314;51.114;6.900;2022-10-28T03:40:30;13.00;;;4.77;;
37451;SDS011;23314;51.114;6.900;2022-10-28T03:42:56;14.00;;;4.47;;
37451;SDS011;23314;51.114;6.900;2022-10-28T03:45:21;16.83;;;5.20;;
37451;SDS011;23314;51.114;6.900;2022-10-28T03:47:46;11.93;;;4.47;;
37451;SDS011;23314;51.114;6.900;2022-10-28T03:50:12;8.67;;;4.10;;
37451;SDS011;23314;51.114;6.900;2022-10-28T03:52:37;11.13;;;4.60;;
37451;SDS011;23314;51.114;6.900;2022-10-28T03:55:02;14.57;;;4.50;;
37451;SDS011;23314;51.114;6.900;2022-10-28T03:57:29;15.93;;;4.50;;
37451;SDS011;23314;51.114;6.900;2022-10-28T03:59:55;12.47;;;4.50;;
37451;SDS011;23314;51.114;6.900;2022-10-28T04:02:22;13.23;;;4.67;;
37451;SDS011;23314;51.114;6.900;2022-10-28T04:04:47;11.97;;;5.00;;
37451;SDS011;23314;51.114;6.900;2022-10-28T04:07:12;13.03;;;4.80;;
37451;SDS011;23314;51.114;6.900;2022-10-28T04:09:38;12.27;;;5.30;;
37451;SDS011;23314;51.114;6.900;2022-10-28T04:12:04;12.47;;;4.47;;
37451;SDS011;23314;51.114;6.900;2022-10-28T04:14:29;9.80;;;4.03;;
37451;SDS011;23314;51.114;6.900;2022-10-28T04:16:55;13.20;;;4.63;;
37451;SDS011;23314;51.114;6.900;2022-10-28T04:19:20;12.33;;;5.10;;
37451;SDS011;23314;51.114;6.900;2022-10-28T04:21:45;14.70;;;5.50;;
37451;SDS011;23314;51.114;6.900;2022-10-28T04:24:11;8.93;;;4.27;;
37451;SDS011;23314;51.114;6.900;2022-10-28T04:26:36;11.00;;;4.50;;
37451;SDS011;23314;51.114;6.900;2022-10-28T04:29:01;12.83;;;5.00;;
37451;SDS011;23314;51.114;6.900;2022-10-28T04:31:27;10.30;;;4.70;;
37451;SDS011;23314;51.114;6.900;2022-10-28T04:33:52;12.73;;;4.57;;
37451;SDS011;23314;51.114;6.900;2022-10-28T04:36:17;9.47;;;4.73;;
37451;SDS011;23314;51.114;6.900;2022-10-28T04:38:43;13.30;;;5.13;;
37451;SDS011;23314;51.114;6.900;2022-10-28T04:41:10;14.70;;;5.23;;
37451;SDS011;23314;51.114;6.900;2022-10-28T04:43:37;11.03;;;4.80;;
37451;SDS011;23314;51.114;6.900;2022-10-28T04:46:02;10.20;;;4.77;;
37451;SDS011;23314;51.114;6.900;2022-10-28T04:48:30;12.33;;;4.73;;
37451;SDS011;23314;51.114;6.900;2022-10-28T04:50:56;12.77;;;5.00;;
37451;SDS011;23314;51.114;6.900;2022-10-28T04:53:21;15.47;;;4.77;;
37451;SDS011;23314;51.114;6.900;2022-10-28T04:55:47;15.00;;;4.90;;
37451;SDS011;23314;51.114;6.900;2022-10-28T04:58:12;13.10;;;4.80;;
37451;SDS011;23314;51.114;6.900;2022-10-28T05:00:37;17.73;;;5.07;;
37451;SDS011;23314;51.114;6.900;2022-10-28T05:03:03;11.17;;;5.20;;
37451;SDS011;23314;51.114;6.900;2022-10-28T05:05:28;9.13;;;4.70;;
37451;SDS011;23314;51.114;6.900;2022-10-28T05:07:55;15.83;;;5.13;;
37451;SDS011;23314;51.114;6.900;2022-10-28T05:10:20;11.87;;;5.37;;
37451;SDS011;23314;51.114;6.900;2022-10-28T05:12:46;10.17;;;4.03;;
37451;SDS011;23314;51.114;6.900;2022-10-28T05:15:11;13.10;;;4.77;;
37451;SDS011;23314;51.114;6.900;2022-10-28T05:17:38;14.30;;;4.93;;
37451;SDS011;23314;51.114;6.900;2022-10-28T05:20:08;12.73;;;4.87;;
37451;SDS011;23314;51.114;6.900;2022-10-28T05:22:34;9.07;;;4.53;;
37451;SDS011;23314;51.114;6.900;2022-10-28T05:25:00;15.10;;;4.87;;
37451;SDS011;23314;51.114;6.900;2022-10-28T05:27:25;16.90;;;5.03;;
37451;SDS011;23314;51.114;6.900;2022-10-28T05:29:51;11.17;;;5.30;;
37451;SDS011;23314;51.114;6.900;2022-10-28T05:32:16;14.30;;;5.00;;
37451;SDS011;23314;51.114;6.900;2022-10-28T05:34:41;10.10;;;4.47;;
37451;SDS011;23314;51.114;6.900;2022-10-28T05:37:07;17.73;;;5.27;;
37451;SDS011;23314;51.114;6.900;2022-10-28T05:39:32;14.30;;;4.73;;
37451;SDS011;23314;51.114;6.900;2022-10-28T05:41:57;13.50;;;5.20;;
37451;SDS011;23314;51.114;6.900;2022-10-28T05:44:23;12.87;;;4.63;;
37451;SDS011;23314;51.114;6.900;2022-10-28T05:46:48;14.60;;;5.03;;
37451;SDS011;23314;51.114;6.900;2022-10-28T05:49:14;14.23;;;5.10;;
37451;SDS011;23314;51.114;6.900;2022-10-28T05:51:44;10.07;;;4.63;;
37451;SDS011;23314;51.114;6.900;2022-10-28T05:54:11;11.43;;;4.60;;
37451;SDS011;23314;51.114;6.900;2022-10-28T05:56:36;11.70;;;4.93;;
37451;SDS011;23314;51.114;6.900;2022-10-28T05:59:02;11.07;;;4.40;;
37451;SDS011;23314;51.114;6.900;2022-10-28T06:01:27;12.67;;;4.97;;
37451;SDS011;23314;51.114;6.900;2022-10-28T06:03:55;10.80;;;4.70;;
37451;SDS011;23314;51.114;6.900;2022-10-28T06:06:21;11.53;;;4.73;;
37451;SDS011;23314;51.114;6.900;2022-10-28T06:08:46;9.43;;;4.23;;
37451;SDS011;23314;51.114;6.900;2022-10-28T06:11:13;19.23;;;4.97;;
37451;SDS011;23314;51.114;6.900;2022-10-28T06:13:38;11.97;;;4.63;;
37451;SDS011;23314;51.114;6.900;2022-10-28T06:16:04;12.17;;;4.73;;
37451;SDS011;23314;51.114;6.900;2022-10-28T06:18:29;14.67;;;5.67;;
37451;SDS011;23314;51.114;6.900;2022-10-28T06:20:55;16.87;;;4.90;;
37451;SDS011;23314;51.114;6.900;2022-10-28T06:23:22;14.43;;;4.73;;
37451;SDS011;23314;51.114;6.900;2022-10-28T06:25:49;12.60;;;4.77;;
37451;SDS011;23314;51.114;6.900;2022-10-28T06:28:15;15.33;;;4.90;;
37451;SDS011;23314;51.114;6.900;2022-10-28T06:30:40;13.93;;;5.03;;
37451;SDS011;23314;51.114;6.900;2022-10-28T06:33:06;13.77;;;4.80;;
37451;SDS011;23314;51.114;6.900;2022-10-28T06:35:31;15.00;;;4.80;;
37451;SDS011;23314;51.114;6.900;2022-10-28T06:37:57;14.43;;;5.27;;
37451;SDS011;23314;51.114;6.900;2022-10-28T06:40:23;13.07;;;5.40;;
37451;SDS011;23314;51.114;6.900;2022-10-28T06:42:56;12.73;;;5.43;;
37451;SDS011;23314;51.114;6.900;2022-10-28T06:45:29;15.57;;;5.43;;
37451;SDS011;23314;51.114;6.900;2022-10-28T06:47:56;16.20;;;5.83;;
37451;SDS011;23314;51.114;6.900;2022-10-28T06:50:23;18.03;;;5.13;;
37451;SDS011;23314;51.114;6.900;2022-10-28T06:52:48;19.03;;;5.37;;
37451;SDS011;23314;51.114;6.900;2022-10-28T06:55:14;13.20;;;5.47;;
37451;SDS011;23314;51.114;6.900;2022-10-28T06:57:39;15.20;;;5.40;;
37451;SDS011;23314;51.114;6.900;2022-10-28T07:00:05;10.10;;;4.50;;
37451;SDS011;23314;51.114;6.900;2022-10-28T07:02:31;9.87;;;4.87;;
37451;SDS011;23314;51.114;6.900;2022-10-28T07:04:57;11.10;;;4.73;;
37451;SDS011;23314;51.114;6.900;2022-10-28T07:07:22;11.80;;;4.70;;
37451;SDS011;23314;51.114;6.900;2022-10-28T07:09:48;11.93;;;4.73;;
37451;SDS011;23314;51.114;6.900;2022-10-28T07:12:14;10.63;;;4.80;;
37451;SDS011;23314;51.114;6.900;2022-10-28T07:14:40;14.93;;;5.10;;
37451;SDS011;23314;51.114;6.900;2022-10-28T07:17:05;12.17;;;4.40;;
37451;SDS011;23314;51.114;6.900;2022-10-28T07:19:31;15.30;;;4.83;;
37451;SDS011;23314;51.114;6.900;2022-10-28T07:21:56;19.40;;;4.70;;
37451;SDS011;23314;51.114;6.900;2022-10-28T07:24:22;15.10;;;5.03;;
37451;SDS011;23314;51.114;6.900;2022-10-28T07:26:47;13.75;;;4.85;;
37451;SDS011;23314;51.114;6.900;2022-10-28T07:29:13;16.73;;;5.07;;
37451;SDS011;23314;51.114;6.900;2022-10-28T07:31:39;10.23;;;4.70;;
37451;SDS011;23314;51.114;6.900;2022-10-28T07:34:04;14.77;;;4.68;;
37451;SDS011;23314;51.114;6.900;2022-10-28T07:36:30;13.55;;;4.85;;
37451;SDS011;23314;51.114;6.900;2022-10-28T07:38:55;13.68;;;4.68;;
37451;SDS011;23314;51.114;6.900;2022-10-28T07:41:21;14.02;;;4.97;;
37451;SDS011;23314;51.114;6.900;2022-10-28T07:43:47;19.25;;;4.85;;
37451;SDS011;23314;51.114;6.900;2022-10-28T07:46:13;11.27;;;4.97;;
37451;SDS011;23314;51.114;6.900;2022-10-28T07:48:39;15.65;;;4.88;;
37451;SDS011;23314;51.114;6.900;2022-10-28T07:51:07;15.10;;;5.22;;
37451;SDS011;23314;51.114;6.900;2022-10-28T07:53:37;15.73;;;4.30;;
37451;SDS011;23314;51.114;6.900;2022-10-28T07:56:04;15.10;;;4.90;;
37451;SDS011;23314;51.114;6.900;2022-10-28T07:58:33;11.32;;;4.60;;
37451;SDS011;23314;51.114;6.900;2022-10-28T08:01:04;19.80;;;5.72;;
37451;SDS011;23314;51.114;6.900;2022-10-28T08:03:31;10.65;;;4.20;;
37451;SDS011;23314;51.114;6.900;2022-10-28T08:06:01;11.95;;;4.57;;
37451;SDS011;23314;51.114;6.900;2022-10-28T08:08:27;15.40;;;5.30;;
37451;SDS011;23314;51.114;6.900;2022-10-28T08:10:52;13.70;;;5.00;;
37451;SDS011;23314;51.114;6.900;2022-10-28T08:13:18;13.93;;;5.07;;
37451;SDS011;23314;51.114;6.900;2022-10-28T08:15:50;12.73;;;4.53;;
37451;SDS011;23314;51.114;6.900;2022-10-28T08:18:16;14.27;;;4.47;;
37451;SDS011;23314;51.114;6.900;2022-10-28T08:20:43;11.23;;;5.65;;
37451;SDS011;23314;51.114;6.900;2022-10-28T08:23:09;12.88;;;4.60;;
37451;SDS011;23314;51.114;6.900;2022-10-28T08:25:37;9.35;;;4.63;;
37451;SDS011;23314;51.114;6.900;2022-10-28T08:28:03;13.45;;;5.20;;
37451;SDS011;23314;51.114;6.900;2022-10-28T08:30:28;10.05;;;3.75;;
37451;SDS011;23314;51.114;6.900;2022-10-28T08:32:54;13.00;;;4.30;;
37451;SDS011;23314;51.114;6.900;2022-10-28T08:35:19;17.52;;;5.07;;
37451;SDS011;23314;51.114;6.900;2022-10-28T08:37:49;20.40;;;5.18;;
37451;SDS011;23314;51.114;6.900;2022-10-28T08:40:15;9.95;;;4.45;;
37451;SDS011;23314;51.114;6.900;2022-10-28T08:42:43;17.33;;;4.18;;
37451;SDS011;23314;51.114;6.900;2022-10-28T08:45:19;13.48;;;4.70;;
37451;SDS011;23314;51.114;6.900;2022-10-28T08:47:54;16.48;;;4.35;;
37451;SDS011;23314;51.114;6.900;2022-10-28T08:50:48;15.30;;;4.47;;
37451;SDS011;23314;51.114;6.900;2022-10-28T08:53:24;17.00;;;4.80;;
37451;SDS011;23314;51.114;6.900;2022-10-28T08:55:55;13.15;;;4.78;;
37451;SDS011;23314;51.114;6.900;2022-10-28T08:58:31;13.60;;;4.50;;
37451;SDS011;23314;51.114;6.900;2022-10-28T09:00:59;22.65;;;4.90;;
37451;SDS011;23314;51.114;6.900;2022-10-28T09:03:29;12.55;;;4.40;;
37451;SDS011;23314;51.114;6.900;2022-10-28T09:06:01;18.30;;;4.95;;
37451;SDS011;23314;51.114;6.900;2022-10-28T09:08:35;9.98;;;4.78;;
37451;SDS011;23314;51.114;6.900;2022-10-28T09:11:35;18.67;;;4.72;;
37451;SDS011;23314;51.114;6.900;2022-10-28T09:17:02;11.90;;;4.22;;
37451;SDS011;23314;51.114;6.900;2022-10-28T09:19:56;12.23;;;4.63;;
37451;SDS011;23314;51.114;6.900;2022-10-28T09:22:25;12.95;;;4.78;;
37451;SDS011;23314;51.114;6.900;2022-10-28T09:25:00;18.98;;;4.57;;
37451;SDS011;23314;51.114;6.900;2022-10-28T09:33:09;12.77;;;4.50;;
37451;SDS011;23314;51.114;6.900;2022-10-28T09:35:47;13.68;;;4.68;;
37451;SDS011;23314;51.114;6.900;2022-10-28T09:41:04;16.65;;;5.13;;
37451;SDS011;23314;51.114;6.900;2022-10-28T09:43:37;14.90;;;4.90;;
37451;SDS011;23314;51.114;6.900;2022-10-28T09:46:12;19.58;;;5.15;;
37451;SDS011;23314;51.114;6.900;2022-10-28T09:48:48;12.00;;;4.53;;
37451;SDS011;23314;51.114;6.900;2022-10-28T09:53:58;13.10;;;4.18;;
37451;SDS011;23314;51.114;6.900;2022-10-28T09:56:25;17.20;;;4.80;;
37451;SDS011;23314;51.114;6.900;2022-10-28T09:58:52;13.55;;;4.78;;
37451;SDS011;23314;51.114;6.900;2022-10-28T10:01:21;16.17;;;4.60;;
37451;SDS011;23314;51.114;6.900;2022-10-28T10:03:46;19.40;;;4.72;;
37451;SDS011;23314;51.114;6.900;2022-10-28T10:06:18;19.80;;;4.97;;
37451;SDS011;23314;51.114;6.900;2022-10-28T10:08:47;11.73;;;4.20;;
37451;SDS011;23314;51.114;6.900;2022-10-28T10:11:56;15.43;;;4.18;;
37451;SDS011;23314;51.114;6.900;2022-10-28T10:14:10;18.55;;;4.57;;
37451;SDS011;23314;51.114;6.900;2022-10-28T10:16:38;12.75;;;5.13;;
37451;SDS011;23314;51.114;6.900;2022-10-28T10:19:07;15.57;;;4.82;;
37451;SDS011;23314;51.114;6.900;2022-10-28T10:27:11;12.90;;;4.70;;
37451;SDS011;23314;51.114;6.900;2022-10-28T10:29:43;14.50;;;4.18;;
37451;SDS011;23314;51.114;6.900;2022-10-28T10:32:15;14.60;;;4.50;;
37451;SDS011;23314;51.114;6.900;2022-10-28T10:37:48;12.90;;;4.28;;
37451;SDS011;23314;51.114;6.900;2022-10-28T10:42:46;16.27;;;4.38;;
37451;SDS011;23314;51.114;6.900;2022-10-28T10:47:40;13.95;;;4.70;;
37451;SDS011;23314;51.114;6.900;2022-10-28T10:50:20;13.40;;;4.50;;
37451;SDS011;23314;51.114;6.900;2022-10-28T10:52:48;16.25;;;4.40;;
37451;SDS011;23314;51.114;6.900;2022-10-28T10:55:49;18.02;;;4.80;;
37451;SDS011;23314;51.114;6.900;2022-10-28T10:58:14;18.30;;;5.18;;
37451;SDS011;23314;51.114;6.900;2022-10-28T11:00:46;16.50;;;4.68;;
37451;SDS011;23314;51.114;6.900;2022-10-28T11:03:17;13.48;;;4.75;;
37451;SDS011;23314;51.114;6.900;2022-10-28T11:05:47;11.70;;;4.45;;
37451;SDS011;23314;51.114;6.900;2022-10-28T11:08:59;13.88;;;4.60;;
37451;SDS011;23314;51.114;6.900;2022-10-28T11:11:09;20.48;;;5.13;;
37451;SDS011;23314;51.114;6.900;2022-10-28T11:13:36;11.75;;;4.55;;
37451;SDS011;23314;51.114;6.900;2022-10-28T11:16:06;13.50;;;4.20;;
37451;SDS011;23314;51.114;6.900;2022-10-28T11:18:42;14.57;;;4.45;;
37451;SDS011;23314;51.114;6.900;2022-10-28T11:26:35;15.52;;;5.10;;
37451;SDS011;23314;51.114;6.900;2022-10-28T11:29:12;11.80;;;4.50;;
37451;SDS011;23314;51.114;6.900;2022-10-28T11:37:01;15.93;;;4.68;;
37451;SDS011;23314;51.114;6.900;2022-10-28T11:39:41;12.30;;;4.70;;
37451;SDS011;23314;51.114;6.900;2022-10-28T11:44:53;13.60;;;4.60;;
37451;SDS011;23314;51.114;6.900;2022-10-28T11:47:41;16.55;;;5.10;;
37451;SDS011;23314;51.114;6.900;2022-10-28T11:58:50;16.30;;;4.43;;
37451;SDS011;23314;51.114;6.900;2022-10-28T12:01:40;15.88;;;4.20;;
37451;SDS011;23314;51.114;6.900;2022-10-28T12:07:18;12.00;;;4.75;;
37451;SDS011;23314;51.114;6.900;2022-10-28T12:23:35;14.35;;;4.70;;
37451;SDS011;23314;51.114;6.900;2022-10-28T12:26:04;15.65;;;4.50;;
37451;SDS011;23314;51.114;6.900;2022-10-28T12:31:04;19.13;;;4.65;;
37451;SDS011;23314;51.114;6.900;2022-10-28T12:33:42;11.73;;;4.50;;
37451;SDS011;23314;51.114;6.900;2022-10-28T12:39:01;13.35;;;4.43;;
37451;SDS011;23314;51.114;6.900;2022-10-28T12:44:18;15.40;;;4.53;;
37451;SDS011;23314;51.114;6.900;2022-10-28T12:46:53;13.23;;;4.32;;
37451;SDS011;23314;51.114;6.900;2022-10-28T12:49:30;13.82;;;4.18;;
37451;SDS011;23314;51.114;6.900;2022-10-28T12:52:08;13.88;;;4.68;;
37451;SDS011;23314;51.114;6.900;2022-10-28T12:57:24;15.30;;;4.63;;
37451;SDS011;23314;51.114;6.900;2022-10-28T12:59:52;12.73;;;4.70;;
37451;SDS011;23314;51.114;6.900;2022-10-28T13:02:29;13.90;;;4.05;;
37451;SDS011;23314;51.114;6.900;2022-10-28T13:05:02;9.27;;;4.55;;
37451;SDS011;23314;51.114;6.900;2022-10-28T13:13:01;14.25;;;4.43;;
37451;SDS011;23314;51.114;6.900;2022-10-28T13:18:55;15.00;;;4.40;;
37451;SDS011;23314;51.114;6.900;2022-10-28T13:27:22;16.45;;;4.07;;
37451;SDS011;23314;51.114;6.900;2022-10-28T13:29:50;17.15;;;4.72;;
37451;SDS011;23314;51.114;6.900;2022-10-28T13:32:28;14.55;;;4.80;;
37451;SDS011;23314;51.114;6.900;2022-10-28T13:34:56;16.25;;;4.60;;
37451;SDS011;23314;51.114;6.900;2022-10-28T13:37:23;17.17;;;5.10;;
37451;SDS011;23314;51.114;6.900;2022-10-28T13:39:55;19.55;;;4.68;;
37451;SDS011;23314;51.114;6.900;2022-10-28T13:44:54;11.85;;;4.10;;
37451;SDS011;23314;51.114;6.900;2022-10-28T13:47:32;12.18;;;4.45;;
37451;SDS011;23314;51.114;6.900;2022-10-28T13:52:37;20.33;;;4.68;;
37451;SDS011;23314;51.114;6.900;2022-10-28T13:57:47;13.60;;;4.50;;
37451;SDS011;23314;51.114;6.900;2022-10-28T14:02:48;13.52;;;4.63;;
37451;SDS011;23314;51.114;6.900;2022-10-28T14:05:18;12.00;;;4.35;;
37451;SDS011;23314;51.114;6.900;2022-10-28T14:07:58;9.30;;;4.55;;
37451;SDS011;23314;51.114;6.900;2022-10-28T14:10:37;13.90;;;5.03;;
37451;SDS011;23314;51.114;6.900;2022-10-28T14:13:05;15.90;;;5.07;;
37451;SDS011;23314;51.114;6.900;2022-10-28T14:15:41;10.68;;;4.18;;
37451;SDS011;23314;51.114;6.900;2022-10-28T14:20:39;15.15;;;4.10;;
37451;SDS011;23314;51.114;6.900;2022-10-28T14:33:31;15.43;;;5.00;;
37451;SDS011;23314;51.114;6.900;2022-10-28T14:41:24;11.32;;;4.05;;
37451;SDS011;23314;51.114;6.900;2022-10-28T14:44:14;14.95;;;5.00;;
37451;SDS011;23314;51.114;6.900;2022-10-28T14:46:58;20.05;;;5.53;;
37451;SDS011;23314;51.114;6.900;2022-10-28T14:49:26;18.13;;;5.28;;
37451;SDS011;23314;51.114;6.900;2022-10-28T14:51:54;11.38;;;5.43;;
37451;SDS011;23314;51.114;6.900;2022-10-28T14:54:43;12.98;;;4.75;;
37451;SDS011;23314;51.114;6.900;2022-10-28T14:57:19;11.38;;;4.15;;
37451;SDS011;23314;51.114;6.900;2022-10-28T14:59:51;15.32;;;5.30;;
37451;SDS011;23314;51.114;6.900;2022-10-28T15:02:22;18.98;;;5.18;;
37451;SDS011;23314;51.114;6.900;2022-10-28T15:07:40;15.13;;;5.18;;
37451;SDS011;23314;51.114;6.900;2022-10-28T15:10:15;19.25;;;5.13;;
37451;SDS011;23314;51.114;6.900;2022-10-28T15:12:51;15.20;;;4.45;;
37451;SDS011;23314;51.114;6.900;2022-10-28T15:15:21;12.23;;;4.55;;
37451;SDS011;23314;51.114;6.900;2022-10-28T15:17:49;14.13;;;4.75;;
37451;SDS011;23314;51.114;6.900;2022-10-28T15:20:22;14.13;;;4.70;;
37451;SDS011;23314;51.114;6.900;2022-10-28T15:22:48;13.57;;;4.43;;
37451;SDS011;23314;51.114;6.900;2022-10-28T15:25:15;11.98;;;4.10;;
37451;SDS011;23314;51.114;6.900;2022-10-28T15:27:46;10.95;;;4.60;;
37451;SDS011;23314;51.114;6.900;2022-10-28T15:30:16;12.98;;;5.00;;
37451;SDS011;23314;51.114;6.900;2022-10-28T15:32:48;11.40;;;4.60;;
37451;SDS011;23314;51.114;6.900;2022-10-28T15:37:52;12.75;;;5.00;;
37451;SDS011;23314;51.114;6.900;2022-10-28T15:40:21;13.32;;;4.57;;
37451;SDS011;23314;51.114;6.900;2022-10-28T15:42:55;13.95;;;5.03;;
37451;SDS011;23314;51.114;6.900;2022-10-28T15:45:23;12.55;;;4.82;;
37451;SDS011;23314;51.114;6.900;2022-10-28T15:47:50;15.20;;;5.72;;
37451;SDS011;23314;51.114;6.900;2022-10-28T15:50:25;24.05;;;12.63;;
37451;SDS011;23314;51.114;6.900;2022-10-28T15:53:18;25.23;;;12.30;;
37451;SDS011;23314;51.114;6.900;2022-10-28T15:55:46;32.97;;;15.65;;
37451;SDS011;23314;51.114;6.900;2022-10-28T16:00:55;31.05;;;13.88;;
37451;SDS011;23314;51.114;6.900;2022-10-28T16:06:21;13.57;;;5.78;;
37451;SDS011;23314;51.114;6.900;2022-10-28T16:08:56;14.68;;;5.50;;
37451;SDS011;23314;51.114;6.900;2022-10-28T16:11:39;17.02;;;5.38;;
37451;SDS011;23314;51.114;6.900;2022-10-28T16:19:37;13.68;;;5.40;;
37451;SDS011;23314;51.114;6.900;2022-10-28T16:22:08;18.77;;;5.38;;
37451;SDS011;23314;51.114;6.900;2022-10-28T16:24:36;13.88;;;4.78;;
37451;SDS011;23314;51.114;6.900;2022-10-28T16:27:13;15.60;;;5.95;;
37451;SDS011;23314;51.114;6.900;2022-10-28T16:29:40;11.02;;;5.03;;
37451;SDS011;23314;51.114;6.900;2022-10-28T16:32:06;17.33;;;5.35;;
37451;SDS011;23314;51.114;6.900;2022-10-28T16:34:34;18.65;;;5.80;;
37451;SDS011;23314;51.114;6.900;2022-10-28T16:36:59;19.85;;;5.30;;
37451;SDS011;23314;51.114;6.900;2022-10-28T16:39:25;16.67;;;5.30;;
37451;SDS011;23314;51.114;6.900;2022-10-28T16:41:50;21.10;;;5.05;;
37451;SDS011;23314;51.114;6.900;2022-10-28T16:44:18;11.43;;;5.22;;
37451;SDS011;23314;51.114;6.900;2022-10-28T16:46:44;16.27;;;5.72;;
37451;SDS011;23314;51.114;6.900;2022-10-28T16:49:09;10.77;;;5.03;;
37451;SDS011;23314;51.114;6.900;2022-10-28T16:51:35;16.77;;;5.80;;
37451;SDS011;23314;51.114;6.900;2022-10-28T16:54:00;15.20;;;5.15;;
37451;SDS011;23314;51.114;6.900;2022-10-28T16:56:27;19.77;;;5.78;;
37451;SDS011;23314;51.114;6.900;2022-10-28T16:58:52;16.17;;;6.00;;
37451;SDS011;23314;51.114;6.900;2022-10-28T17:01:20;19.55;;;5.55;;
37451;SDS011;23314;51.114;6.900;2022-10-28T17:03:46;18.75;;;6.00;;
37451;SDS011;23314;51.114;6.900;2022-10-28T17:06:12;18.52;;;6.05;;
37451;SDS011;23314;51.114;6.900;2022-10-28T17:08:37;19.30;;;5.53;;
37451;SDS011;23314;51.114;6.900;2022-10-28T17:11:05;16.92;;;5.63;;
37451;SDS011;23314;51.114;6.900;2022-10-28T17:13:31;19.63;;;5.85;;
37451;SDS011;23314;51.114;6.900;2022-10-28T17:15:58;15.40;;;5.70;;
37451;SDS011;23314;51.114;6.900;2022-10-28T17:18:23;16.23;;;5.70;;
37451;SDS011;23314;51.114;6.900;2022-10-28T17:20:59;22.58;;;5.68;;
37451;SDS011;23314;51.114;6.900;2022-10-28T17:23:25;18.23;;;6.80;;
37451;SDS011;23314;51.114;6.900;2022-10-28T17:25:58;27.17;;;6.68;;
37451;SDS011;23314;51.114;6.900;2022-10-28T17:28:24;17.10;;;7.65;;
37451;SDS011;23314;51.114;6.900;2022-10-28T17:30:50;22.23;;;7.15;;
37451;SDS011;23314;51.114;6.900;2022-10-28T17:33:15;20.85;;;7.85;;
37451;SDS011;23314;51.114;6.900;2022-10-28T17:35:41;21.55;;;9.52;;
37451;SDS011;23314;51.114;6.900;2022-10-28T17:38:06;20.80;;;9.00;;
37451;SDS011;23314;51.114;6.900;2022-10-28T17:40:32;24.73;;;8.68;;
37451;SDS011;23314;51.114;6.900;2022-10-28T17:42:58;16.55;;;8.07;;
37451;SDS011;23314;51.114;6.900;2022-10-28T17:45:23;17.20;;;9.18;;
37451;SDS011;23314;51.114;6.900;2022-10-28T17:47:49;23.63;;;9.25;;
37451;SDS011;23314;51.114;6.900;2022-10-28T17:50:14;22.58;;;10.05;;
37451;SDS011;23314;51.114;6.900;2022-10-28T17:52:40;25.52;;;10.43;;